Time;durP1;ratioP1;P1;durP2;ratioP2;P2;SDS_P1;SDS_P2;PMS_P1;PMS_P2;Temp;Humidity;BMP_temperature;BMP_pressure;BME280_temperature;BME280_humidity;BME280_pressure;Samples;Min_cycle;Max_cycle;Signal;HPM_P1;HPM_P2
2021/10/18 00:02:15;;;;;;;11.68;7.88;;;13.50;76.80;;;;;;5071362;28;20042;-84
2021/10/18 00:04:41;;;;;;;9.02;7.35;;;13.40;75.90;;;;;;5054185;28;20438;-84
2021/10/18 00:07:06;;;;;;;9.93;7.40;;;13.40;76.10;;;;;;5067404;28;20032;-84
2021/10/18 00:09:32;;;;;;;9.85;7.50;;;13.40;76.20;;;;;;5072069;28;20374;-83
2021/10/18 00:11:58;;;;;;;9.52;7.50;;;13.40;76.00;;;;;;5070942;28;20028;-84
2021/10/18 00:14:23;;;;;;;9.73;7.32;;;13.30;76.20;;;;;;5071416;28;20036;-84
2021/10/18 00:16:49;;;;;;;9.20;7.60;;;13.30;75.70;;;;;;5070177;28;20020;-83
2021/10/18 00:19:15;;;;;;;10.73;7.93;;;13.30;76.00;;;;;;5054670;28;20036;-83
2021/10/18 00:21:41;;;;;;;9.52;7.75;;;13.30;76.30;;;;;;5055447;28;20029;-83
2021/10/18 00:24:07;;;;;;;9.77;8.10;;;13.40;76.10;;;;;;5059027;28;20112;-83
2021/10/18 00:26:33;;;;;;;8.63;7.40;;;13.30;75.90;;;;;;5067345;28;20035;-83
2021/10/18 00:28:58;;;;;;;11.52;7.57;;;13.30;75.60;;;;;;5070836;28;20105;-83
2021/10/18 00:31:24;;;;;;;12.45;8.10;;;13.20;76.00;;;;;;5071088;28;20060;-83
2021/10/18 00:33:50;;;;;;;10.50;7.65;;;13.20;75.80;;;;;;5036964;28;20066;-83
2021/10/18 00:36:16;;;;;;;9.95;7.10;;;13.20;76.20;;;;;;5058441;28;20036;-82
2021/10/18 00:38:42;;;;;;;10.65;7.95;;;13.20;76.00;;;;;;5067584;28;20040;-83
2021/10/18 00:41:08;;;;;;;9.48;7.38;;;13.10;76.30;;;;;;5070985;28;20039;-83
2021/10/18 00:43:34;;;;;;;9.40;7.53;;;13.10;76.40;;;;;;5053240;28;20392;-82
2021/10/18 00:46:00;;;;;;;8.50;7.43;;;13.10;76.40;;;;;;5055144;28;20036;-83
2021/10/18 00:48:26;;;;;;;8.15;7.25;;;13.10;76.70;;;;;;5071106;28;20108;-83
2021/10/18 00:50:56;;;;;;;8.55;7.60;;;13.10;76.50;;;;;;5071030;28;20025;-82
2021/10/18 00:53:25;;;;;;;10.02;7.40;;;13.10;76.40;;;;;;5074742;28;20024;-83
2021/10/18 00:55:51;;;;;;;8.15;7.03;;;13.10;76.70;;;;;;5082736;28;20029;-83
2021/10/18 00:58:16;;;;;;;10.68;6.75;;;13.10;76.90;;;;;;5070912;28;20036;-83
2021/10/18 01:00:42;;;;;;;9.48;7.00;;;13.10;76.70;;;;;;5071150;28;20032;-83
2021/10/18 01:03:09;;;;;;;8.02;6.90;;;13.10;76.30;;;;;;5050788;28;20051;-83
2021/10/18 01:05:36;;;;;;;8.48;6.88;;;13.10;76.60;;;;;;5045738;28;20079;-83
2021/10/18 01:08:02;;;;;;;9.55;6.88;;;13.10;76.70;;;;;;5057365;28;20040;-84
2021/10/18 01:10:28;;;;;;;9.32;7.28;;;13.00;76.70;;;;;;5057788;28;20029;-84
2021/10/18 01:12:53;;;;;;;9.45;6.85;;;13.00;76.70;;;;;;5037171;28;20060;-83
2021/10/18 01:15:19;;;;;;;9.65;6.80;;;13.00;76.70;;;;;;5055969;28;20108;-82
2021/10/18 01:17:45;;;;;;;9.55;6.60;;;13.00;77.00;;;;;;5059124;28;20041;-82
2021/10/18 01:20:13;;;;;;;9.40;7.32;;;12.90;77.10;;;;;;5065774;28;20033;-83
2021/10/18 01:22:39;;;;;;;9.45;7.07;;;13.00;77.30;;;;;;5074856;28;20029;-82
2021/10/18 01:25:05;;;;;;;9.10;7.10;;;13.00;76.80;;;;;;5074359;28;20500;-83
2021/10/18 01:27:30;;;;;;;10.45;7.35;;;13.00;77.10;;;;;;5075313;28;20033;-82
2021/10/18 01:29:56;;;;;;;9.50;6.82;;;13.00;76.90;;;;;;5074706;28;20032;-82
2021/10/18 01:32:21;;;;;;;10.82;7.25;;;13.00;77.00;;;;;;5074610;28;20036;-82
2021/10/18 01:34:47;;;;;;;9.35;7.00;;;13.10;77.70;;;;;;5074727;28;20373;-82
2021/10/18 01:37:13;;;;;;;7.95;6.45;;;13.00;76.40;;;;;;5074463;28;20071;-83
2021/10/18 01:39:39;;;;;;;9.60;7.05;;;13.00;76.30;;;;;;5059152;28;20041;-83
2021/10/18 01:42:04;;;;;;;9.02;7.25;;;13.00;76.70;;;;;;5074735;28;20408;-84
2021/10/18 01:44:31;;;;;;;8.45;7.20;;;13.00;76.60;;;;;;5049930;28;20402;-84
2021/10/18 01:46:56;;;;;;;7.95;6.70;;;12.90;76.90;;;;;;5065081;28;20029;-84
2021/10/18 01:49:22;;;;;;;9.07;7.00;;;12.90;76.80;;;;;;5074284;28;20025;-84
2021/10/18 01:51:48;;;;;;;8.60;7.50;;;12.90;77.10;;;;;;5074127;28;20024;-84
2021/10/18 01:54:13;;;;;;;8.18;6.60;;;12.80;77.10;;;;;;5085983;28;20381;-84
2021/10/18 01:56:39;;;;;;;8.48;7.10;;;12.80;77.40;;;;;;5077775;28;20370;-84
2021/10/18 01:59:05;;;;;;;11.48;7.47;;;12.80;77.30;;;;;;5073871;28;20044;-84
2021/10/18 02:01:31;;;;;;;7.38;6.35;;;12.80;77.40;;;;;;5074050;28;20061;-84
2021/10/18 02:03:56;;;;;;;8.25;6.90;;;12.70;77.40;;;;;;5056138;28;20062;-83
2021/10/18 02:06:22;;;;;;;8.63;7.10;;;12.70;77.90;;;;;;5074121;28;20056;-84
2021/10/18 02:08:47;;;;;;;10.85;7.45;;;12.70;77.90;;;;;;5064965;28;20100;-84
2021/10/18 02:11:13;;;;;;;8.88;7.25;;;12.60;78.40;;;;;;5067025;28;20040;-82
2021/10/18 02:13:39;;;;;;;11.45;7.30;;;12.70;78.60;;;;;;5074142;28;20400;-79
2021/10/18 02:16:05;;;;;;;9.90;7.38;;;12.70;78.30;;;;;;5074106;28;20058;-84
2021/10/18 02:18:31;;;;;;;10.05;6.97;;;12.70;78.40;;;;;;5058977;28;20472;-83
2021/10/18 02:21:00;;;;;;;9.77;7.53;;;12.70;78.40;;;;;;5072403;28;20033;-83
2021/10/18 02:23:30;;;;;;;8.65;6.80;;;12.70;78.20;;;;;;5074033;28;20020;-84
2021/10/18 02:25:55;;;;;;;8.88;7.13;;;12.80;78.60;;;;;;5055406;28;20489;-83
2021/10/18 02:28:22;;;;;;;7.85;6.55;;;12.80;78.30;;;;;;5073426;28;20032;-83
2021/10/18 02:30:48;;;;;;;9.80;7.72;;;12.80;78.20;;;;;;5072342;28;20024;-84
2021/10/18 02:33:14;;;;;;;8.50;7.00;;;12.80;78.30;;;;;;5073976;28;20097;-84
2021/10/18 02:35:39;;;;;;;7.63;6.28;;;12.80;78.20;;;;;;5073020;28;20505;-84
2021/10/18 02:38:05;;;;;;;8.32;6.63;;;12.80;78.10;;;;;;5073260;28;20851;-84
2021/10/18 02:40:31;;;;;;;9.43;6.57;;;12.80;78.10;;;;;;5073024;28;20044;-84
2021/10/18 02:42:56;;;;;;;10.27;6.25;;;12.80;77.90;;;;;;5073783;28;20043;-84
2021/10/18 02:45:22;;;;;;;11.80;7.68;;;12.70;78.70;;;;;;5074021;28;20502;-85
2021/10/18 02:47:48;;;;;;;8.95;6.93;;;12.70;79.10;;;;;;5073136;28;20058;-84
2021/10/18 02:50:13;;;;;;;8.63;6.53;;;12.70;79.50;;;;;;5072590;28;20025;-84
2021/10/18 02:52:40;;;;;;;8.15;6.60;;;12.80;79.20;;;;;;5073173;28;20546;-84
2021/10/18 02:55:06;;;;;;;8.98;6.60;;;12.70;79.30;;;;;;5087706;28;20024;-84
2021/10/18 02:57:32;;;;;;;9.88;7.35;;;12.70;79.60;;;;;;5073676;28;20028;-84
2021/10/18 02:59:57;;;;;;;9.30;7.25;;;12.70;80.30;;;;;;5072760;28;20103;-84
2021/10/18 03:02:23;;;;;;;8.40;6.85;;;12.70;79.70;;;;;;5072989;28;20024;-84
2021/10/18 03:04:50;;;;;;;9.32;7.00;;;12.70;79.60;;;;;;5072491;28;20032;-84
2021/10/18 03:07:15;;;;;;;11.38;7.25;;;12.70;79.80;;;;;;5054773;28;20497;-84
2021/10/18 03:09:41;;;;;;;10.10;7.05;;;12.70;80.10;;;;;;5039110;28;20089;-84
2021/10/18 03:12:07;;;;;;;7.88;6.78;;;12.70;79.70;;;;;;5073229;28;20020;-84
2021/10/18 03:14:32;;;;;;;8.90;6.85;;;12.70;80.00;;;;;;5072506;28;20041;-84
2021/10/18 03:16:58;;;;;;;9.30;6.70;;;12.70;80.40;;;;;;5072371;28;20054;-84
2021/10/18 03:19:23;;;;;;;10.02;7.25;;;12.70;80.30;;;;;;5054628;28;20090;-84
2021/10/18 03:21:49;;;;;;;8.27;6.97;;;12.70;80.60;;;;;;5072701;28;20024;-84
2021/10/18 03:24:15;;;;;;;9.93;7.38;;;12.70;80.20;;;;;;5073095;28;20033;-84
2021/10/18 03:26:40;;;;;;;9.85;6.82;;;12.70;80.40;;;;;;5072138;28;20036;-84
2021/10/18 03:29:06;;;;;;;8.20;6.63;;;12.70;80.20;;;;;;5050774;28;20029;-84
2021/10/18 03:31:32;;;;;;;8.25;6.25;;;12.70;80.40;;;;;;5059815;28;20020;-84
2021/10/18 03:33:57;;;;;;;8.70;6.95;;;12.70;80.50;;;;;;5071744;28;20038;-84
2021/10/18 03:36:23;;;;;;;7.95;6.68;;;12.60;80.80;;;;;;5073356;28;20378;-84
2021/10/18 03:38:48;;;;;;;9.20;6.80;;;12.60;80.90;;;;;;5072006;28;20074;-84
2021/10/18 03:41:14;;;;;;;7.85;5.95;;;12.70;80.60;;;;;;5067461;28;20470;-83
2021/10/18 03:43:40;;;;;;;7.82;6.57;;;12.70;80.60;;;;;;5058913;28;20024;-84
2021/10/18 03:46:06;;;;;;;9.07;7.05;;;12.80;81.60;;;;;;5038264;28;20059;-84
2021/10/18 03:48:32;;;;;;;8.50;6.68;;;12.80;81.50;;;;;;5072581;28;20044;-84
2021/10/18 03:50:57;;;;;;;7.82;6.68;;;12.90;80.40;;;;;;5054256;28;20028;-84
2021/10/18 03:53:23;;;;;;;10.07;6.50;;;13.00;80.40;;;;;;5074914;28;20373;-84
2021/10/18 03:55:49;;;;;;;8.73;6.80;;;13.00;79.90;;;;;;5082345;28;20036;-84
2021/10/18 03:58:15;;;;;;;8.52;6.72;;;12.90;79.30;;;;;;5071974;28;20062;-83
2021/10/18 04:00:41;;;;;;;8.52;7.00;;;12.90;79.20;;;;;;5072095;28;20489;-84
2021/10/18 04:03:07;;;;;;;8.48;6.43;;;12.90;79.60;;;;;;5071662;28;20050;-84
2021/10/18 04:05:33;;;;;;;8.90;7.00;;;12.90;79.60;;;;;;5046508;28;20028;-83
2021/10/18 04:07:58;;;;;;;8.48;6.80;;;12.80;79.50;;;;;;5044742;28;20056;-84
2021/10/18 04:10:24;;;;;;;9.30;6.97;;;12.70;79.70;;;;;;5071859;28;20043;-84
2021/10/18 04:12:50;;;;;;;9.60;7.40;;;12.70;80.30;;;;;;5071661;28;20032;-84
2021/10/18 04:15:16;;;;;;;10.45;7.07;;;12.70;80.40;;;;;;5058941;28;20493;-84
2021/10/18 04:17:42;;;;;;;9.75;7.15;;;12.60;80.50;;;;;;5068018;28;20029;-84
2021/10/18 04:20:09;;;;;;;8.70;7.22;;;12.60;80.50;;;;;;5067990;28;20500;-84
2021/10/18 04:22:34;;;;;;;8.88;6.95;;;12.60;80.80;;;;;;5059517;28;20025;-84
2021/10/18 04:25:00;;;;;;;10.00;7.40;;;12.60;81.20;;;;;;5071142;28;20397;-84
2021/10/18 04:27:26;;;;;;;10.35;7.32;;;12.60;81.30;;;;;;5071605;28;20052;-84
2021/10/18 04:29:52;;;;;;;9.38;7.03;;;12.60;81.40;;;;;;5071604;28;20090;-84
2021/10/18 04:32:17;;;;;;;8.38;7.15;;;12.60;81.30;;;;;;5071334;28;20024;-84
2021/10/18 04:34:43;;;;;;;9.57;7.35;;;12.60;81.70;;;;;;5072804;28;20023;-84
2021/10/18 04:37:09;;;;;;;10.38;7.35;;;12.60;81.70;;;;;;5072992;28;20481;-83
2021/10/18 04:39:35;;;;;;;9.70;8.10;;;12.60;82.40;;;;;;5072237;28;20078;-83
2021/10/18 04:42:01;;;;;;;10.63;7.07;;;12.70;82.00;;;;;;5071703;28;20033;-84
2021/10/18 04:44:27;;;;;;;10.25;7.70;;;12.70;81.10;;;;;;5071640;28;20119;-84
2021/10/18 04:46:52;;;;;;;10.15;7.00;;;12.70;81.00;;;;;;5071086;28;20469;-83
2021/10/18 04:49:18;;;;;;;8.45;6.75;;;12.70;81.20;;;;;;5071746;28;20037;-84
2021/10/18 04:51:45;;;;;;;10.15;7.40;;;12.80;81.10;;;;;;5055980;28;20108;-84
2021/10/18 04:54:10;;;;;;;9.00;6.63;;;12.70;80.90;;;;;;5070476;28;20020;-84
2021/10/18 04:56:36;;;;;;;8.93;7.28;;;12.70;81.20;;;;;;5071504;28;20077;-84
2021/10/18 04:59:02;;;;;;;8.88;7.15;;;12.70;81.10;;;;;;5068331;28;20417;-84
2021/10/18 05:01:27;;;;;;;10.63;7.72;;;12.60;81.50;;;;;;5058196;28;20500;-83
2021/10/18 05:03:53;;;;;;;9.95;7.60;;;12.60;81.70;;;;;;5071559;28;20062;-83
2021/10/18 05:06:18;;;;;;;9.23;7.07;;;12.60;81.80;;;;;;5072013;28;20036;-82
2021/10/18 05:08:44;;;;;;;8.30;6.93;;;12.60;82.00;;;;;;5044843;28;20032;-84
2021/10/18 05:11:10;;;;;;;8.82;6.95;;;12.70;82.00;;;;;;5060825;28;20039;-84
2021/10/18 05:13:35;;;;;;;12.10;7.95;;;12.70;82.30;;;;;;5060634;28;20431;-83
2021/10/18 05:16:01;;;;;;;10.60;7.93;;;12.70;82.00;;;;;;5060610;28;20059;-84
2021/10/18 05:18:26;;;;;;;9.30;7.65;;;12.70;81.80;;;;;;5077902;28;20041;-84
2021/10/18 05:20:52;;;;;;;9.48;7.43;;;12.70;81.90;;;;;;5086308;28;20025;-82
2021/10/18 05:23:18;;;;;;;9.65;7.88;;;12.70;82.20;;;;;;5086519;28;20412;-83
2021/10/18 05:25:44;;;;;;;11.48;8.00;;;12.70;82.20;;;;;;5085765;28;20021;-82
2021/10/18 05:28:10;;;;;;;9.60;7.53;;;12.60;82.50;;;;;;5086025;28;20028;-83
2021/10/18 05:30:36;;;;;;;8.38;7.47;;;12.60;82.50;;;;;;5081565;28;20358;-84
2021/10/18 05:33:03;;;;;;;9.98;7.22;;;12.60;82.60;;;;;;5071310;28;20480;-83
2021/10/18 05:35:30;;;;;;;9.35;7.60;;;12.60;82.80;;;;;;5064912;28;20059;-84
2021/10/18 05:37:56;;;;;;;10.05;7.63;;;12.70;82.90;;;;;;5061606;28;20041;-83
2021/10/18 05:40:22;;;;;;;9.63;7.57;;;12.60;83.00;;;;;;5071254;28;20131;-83
2021/10/18 05:42:49;;;;;;;10.27;7.50;;;12.70;83.70;;;;;;5054982;28;20426;-83
2021/10/18 05:45:16;;;;;;;11.70;8.52;;;12.70;83.40;;;;;;5059024;28;20109;-84
2021/10/18 05:47:56;;;;;;;13.50;8.70;;;12.70;83.80;;;;;;5059447;28;20040;-84
2021/10/18 05:50:23;;;;;;;12.30;8.60;;;12.70;83.50;;;;;;5065201;28;20081;-83
2021/10/18 05:52:50;;;;;;;12.38;8.73;;;12.70;83.90;;;;;;5069338;28;20040;-84
2021/10/18 05:55:16;;;;;;;12.15;8.98;;;12.80;84.50;;;;;;5085756;28;20075;-84
2021/10/18 05:58:09;;;;;;;11.55;9.02;;;12.80;84.60;;;;;;5054954;28;20446;-83
2021/10/18 06:00:40;;;;;;;12.88;9.05;;;12.80;83.50;;;;;;5062710;28;20489;-83
2021/10/18 06:03:07;;;;;;;12.48;8.48;;;12.90;84.90;;;;;;5069459;28;20078;-83
2021/10/18 06:05:42;;;;;;;13.13;9.13;;;12.90;85.10;;;;;;5067908;28;20505;-83
2021/10/18 06:08:08;;;;;;;17.10;9.90;;;13.00;84.70;;;;;;5057342;28;20021;-83
2021/10/18 06:10:34;;;;;;;15.05;10.38;;;12.90;84.90;;;;;;5075114;28;20067;-82
2021/10/18 06:13:00;;;;;;;14.70;9.32;;;12.90;85.80;;;;;;5075025;28;20074;-84
2021/10/18 06:15:26;;;;;;;19.25;10.68;;;12.90;85.50;;;;;;5076392;28;20028;-83
2021/10/18 06:17:52;;;;;;;15.45;10.15;;;12.90;86.60;;;;;;5075242;28;20574;-83
2021/10/18 06:20:19;;;;;;;17.45;10.88;;;12.90;86.00;;;;;;5074615;28;20477;-81
2021/10/18 06:22:46;;;;;;;15.50;10.00;;;12.90;86.80;;;;;;5074343;28;20043;-81
2021/10/18 06:25:11;;;;;;;16.17;10.23;;;12.90;87.20;;;;;;5074140;28;20020;-82
2021/10/18 06:27:38;;;;;;;16.98;10.98;;;12.90;86.50;;;;;;5074907;28;20021;-82
2021/10/18 06:30:05;;;;;;;15.77;9.77;;;13.00;87.20;;;;;;5075584;28;20050;-83
2021/10/18 06:32:32;;;;;;;17.48;11.43;;;13.00;87.00;;;;;;5093388;28;20024;-82
2021/10/18 06:34:57;;;;;;;18.02;11.30;;;13.00;87.30;;;;;;5093662;28;20024;-84
2021/10/18 06:37:23;;;;;;;17.17;10.70;;;13.00;87.40;;;;;;5086362;28;20052;-83
2021/10/18 06:39:49;;;;;;;19.15;11.77;;;13.00;87.20;;;;;;5093915;28;20040;-83
2021/10/18 06:42:15;;;;;;;20.15;11.02;;;13.10;87.30;;;;;;5097872;28;20037;-82
2021/10/18 06:44:42;;;;;;;20.77;10.80;;;13.10;87.20;;;;;;5094143;28;20060;-83
2021/10/18 06:47:11;;;;;;;19.52;11.27;;;13.10;88.10;;;;;;5078745;28;20260;-83
2021/10/18 06:49:37;;;;;;;18.48;11.45;;;13.10;87.50;;;;;;5086601;28;20044;-81
2021/10/18 06:52:03;;;;;;;17.38;11.07;;;13.10;88.10;;;;;;5094482;28;20050;-82
2021/10/18 06:54:36;;;;;;;17.23;11.30;;;13.20;88.10;;;;;;5095989;28;20028;-82
2021/10/18 06:57:02;;;;;;;20.75;11.90;;;13.10;87.70;;;;;;5086772;28;20016;-82
2021/10/18 06:59:27;;;;;;;17.60;10.60;;;13.20;88.00;;;;;;5081644;28;20108;-80
2021/10/18 07:01:53;;;;;;;15.40;10.20;;;13.20;88.20;;;;;;5073888;28;20497;-79
2021/10/18 07:04:20;;;;;;;16.33;10.80;;;13.20;88.10;;;;;;5073076;28;20021;-80
2021/10/18 07:06:45;;;;;;;16.30;11.05;;;13.20;88.40;;;;;;5073026;28;20024;-79
2021/10/18 07:09:11;;;;;;;14.85;10.18;;;13.30;88.50;;;;;;5073294;28;20099;-79
2021/10/18 07:11:37;;;;;;;14.02;9.73;;;13.40;87.80;;;;;;5072545;28;20055;-79
2021/10/18 07:14:02;;;;;;;15.13;10.18;;;13.40;88.20;;;;;;5072656;28;20043;-79
2021/10/18 07:16:28;;;;;;;14.60;10.07;;;13.50;87.90;;;;;;5069631;28;20050;-78
2021/10/18 07:18:53;;;;;;;16.15;10.40;;;13.50;88.00;;;;;;5072245;28;20029;-79
2021/10/18 07:21:20;;;;;;;13.93;9.38;;;13.50;88.70;;;;;;5073479;28;20020;-80
2021/10/18 07:23:51;;;;;;;11.70;9.32;;;13.60;88.40;;;;;;5073243;28;20020;-84
2021/10/18 07:26:17;;;;;;;11.93;9.27;;;13.60;88.10;;;;;;5072230;28;20021;-83
2021/10/18 07:28:43;;;;;;;14.68;10.40;;;13.70;88.30;;;;;;5056726;28;20024;-84
2021/10/18 07:31:09;;;;;;;13.88;9.07;;;13.70;88.00;;;;;;5072483;28;20086;-84
2021/10/18 07:33:35;;;;;;;15.43;10.35;;;13.70;89.20;;;;;;5052700;28;20044;-83
2021/10/18 07:36:08;;;;;;;13.77;9.30;;;13.60;88.70;;;;;;5072654;28;20028;-84
2021/10/18 07:38:38;;;;;;;15.15;10.73;;;13.70;88.80;;;;;;5070351;28;20029;-84
2021/10/18 07:41:05;;;;;;;14.00;10.10;;;13.70;89.50;;;;;;5071551;28;20543;-82
2021/10/18 07:43:31;;;;;;;14.80;10.30;;;13.70;89.20;;;;;;5070043;28;20058;-84
2021/10/18 07:45:57;;;;;;;13.32;10.10;;;13.70;89.70;;;;;;5052055;28;20029;-81
2021/10/18 07:48:22;;;;;;;14.07;10.13;;;13.80;89.60;;;;;;5071052;28;20078;-80
2021/10/18 07:50:48;;;;;;;14.85;10.60;;;13.80;89.60;;;;;;5069951;28;20085;-80
2021/10/18 07:53:14;;;;;;;13.98;9.00;;;13.80;90.20;;;;;;5048680;28;20025;-80
2021/10/18 07:55:39;;;;;;;11.43;8.85;;;13.90;89.90;;;;;;5054798;28;20103;-78
2021/10/18 07:58:05;;;;;;;12.27;8.95;;;13.90;89.80;;;;;;5049086;28;23782;-74
2021/10/18 08:00:32;;;;;;;14.85;9.77;;;14.00;89.70;;;;;;5046534;28;20025;-77
2021/10/18 08:02:57;;;;;;;15.27;10.02;;;14.00;89.80;;;;;;5054290;28;20068;-74
2021/10/18 08:05:24;;;;;;;14.35;10.27;;;14.10;90.10;;;;;;5053474;28;20168;-74
2021/10/18 08:07:51;;;;;;;13.55;9.57;;;14.10;90.00;;;;;;5056647;28;20560;-75
2021/10/18 08:10:25;;;;;;;13.77;9.20;;;14.20;90.10;;;;;;5056379;28;20067;-75
2021/10/18 08:12:51;;;;;;;;;;;14.20;90.30;;;;;;5055365;28;20126;-80
2021/10/18 08:15:17;;;;;;;14.07;9.35;;;14.30;88.50;;;;;;5043310;28;19965;-79
2021/10/18 08:17:42;;;;;;;17.30;9.63;;;14.40;90.00;;;;;;5035727;28;20040;-76
2021/10/18 08:20:09;;;;;;;11.38;8.43;;;14.50;90.20;;;;;;5033062;28;20701;-77
2021/10/18 08:22:35;;;;;;;13.30;9.18;;;14.50;90.00;;;;;;5043574;28;20463;-75
2021/10/18 08:25:00;;;;;;;14.15;9.77;;;14.60;90.10;;;;;;5028564;28;20033;-76
2021/10/18 08:27:26;;;;;;;15.95;10.30;;;14.60;90.10;;;;;;5039052;28;20055;-77
2021/10/18 08:29:52;;;;;;;11.68;8.90;;;14.70;90.20;;;;;;5030676;28;20353;-76
2021/10/18 08:32:17;;;;;;;12.43;9.18;;;14.70;90.10;;;;;;5044840;28;20034;-77
2021/10/18 08:34:43;;;;;;;13.77;10.15;;;14.80;90.40;;;;;;5026412;28;20036;-77
2021/10/18 08:37:09;;;;;;;13.82;9.60;;;14.80;90.60;;;;;;5014165;28;20032;-79
2021/10/18 08:42:26;;;;;;;13.25;9.98;;;14.90;90.50;;;;;;5048597;28;20404;-73
2021/10/18 08:44:52;;;;;;;13.52;10.02;;;14.90;90.60;;;;;;5069296;28;20631;-74
2021/10/18 08:47:17;;;;;;;13.50;10.20;;;14.90;90.40;;;;;;5069883;28;20099;-75
2021/10/18 08:49:43;;;;;;;13.45;9.48;;;15.00;90.30;;;;;;5070231;28;20028;-76
2021/10/18 08:52:09;;;;;;;12.43;9.57;;;15.10;90.40;;;;;;5071274;28;20023;-80
2021/10/18 08:54:35;;;;;;;13.00;9.75;;;15.10;90.50;;;;;;5075566;28;20027;-73
2021/10/18 08:57:01;;;;;;;13.38;9.23;;;15.10;90.00;;;;;;5070401;28;20017;-73
2021/10/18 08:59:27;;;;;;;11.93;9.68;;;15.10;90.90;;;;;;5064751;28;20040;-72
2021/10/18 09:01:57;;;;;;;11.90;9.15;;;15.10;90.30;;;;;;5058956;28;20443;-73
2021/10/18 09:04:36;;;;;;;10.98;7.88;;;15.10;90.70;;;;;;5083094;28;20024;-71
2021/10/18 09:07:16;;;;;;;10.75;8.57;;;15.20;90.50;;;;;;5069833;28;20028;-74
2021/10/18 09:09:48;;;;;;;10.38;8.07;;;15.20;90.10;;;;;;5067709;28;20082;-73
2021/10/18 09:12:31;;;;;;;9.60;7.03;;;15.10;90.50;;;;;;5070561;28;20393;-73
2021/10/18 09:15:23;;;;;;;8.13;6.63;;;15.10;90.40;;;;;;5071094;28;20031;-73
2021/10/18 09:17:54;;;;;;;8.32;6.18;;;15.30;90.20;;;;;;4980610;28;21479;-73
2021/10/18 09:20:22;;;;;;;8.55;6.82;;;15.30;90.60;;;;;;4978677;28;20054;-73
2021/10/18 09:22:50;;;;;;;8.18;6.38;;;15.40;90.40;;;;;;4986571;28;20042;-73
2021/10/18 09:25:32;;;;;;;9.25;6.53;;;15.40;90.80;;;;;;4986757;28;20022;-74
2021/10/18 09:28:08;;;;;;;6.93;5.90;;;15.40;90.50;;;;;;4976540;28;20109;-73
2021/10/18 09:30:39;;;;;;;7.82;6.40;;;15.50;90.30;;;;;;4973198;28;20031;-73
2021/10/18 09:33:34;;;;;;;8.27;6.97;;;15.50;90.70;;;;;;4987769;28;20038;-73
2021/10/18 09:36:03;;;;;;;8.30;6.47;;;15.50;90.70;;;;;;4977592;28;20042;-73
2021/10/18 09:38:29;;;;;;;7.38;6.07;;;15.70;90.70;;;;;;4981062;28;20069;-73
2021/10/18 09:40:58;;;;;;;8.00;6.57;;;15.80;90.80;;;;;;4977904;28;20043;-73
2021/10/18 10:53:39;;;;;;;8.38;6.47;;;16.60;90.50;;;;;;5010365;28;20042;-72
2021/10/18 10:56:59;;;;;;;8.95;6.68;;;16.60;91.00;;;;;;5002915;28;20406;-72
2021/10/18 10:59:31;;;;;;;9.13;7.18;;;16.60;90.60;;;;;;5014175;28;20077;-73
2021/10/18 11:02:10;;;;;;;9.70;7.28;;;16.60;91.00;;;;;;5017417;28;20034;-72
2021/10/18 11:04:37;;;;;;;8.65;7.18;;;16.60;90.80;;;;;;5026084;28;20060;-72
2021/10/18 11:07:03;;;;;;;7.95;6.30;;;16.60;90.90;;;;;;5086016;28;20047;-73
2021/10/18 11:09:51;;;;;;;8.27;6.35;;;16.60;90.90;;;;;;5082017;28;20102;-71
2021/10/18 11:12:17;;;;;;;9.05;6.47;;;16.60;90.90;;;;;;5069884;28;20013;-74
2021/10/18 11:14:56;;;;;;;10.00;7.22;;;16.70;91.20;;;;;;5063999;28;20037;-75
2021/10/18 11:17:23;;;;;;;8.45;6.47;;;16.70;91.70;;;;;;5062250;28;20397;-79
2021/10/18 11:19:58;;;;;;;9.15;6.60;;;16.70;91.20;;;;;;5071054;28;20024;-78
2021/10/18 11:22:28;;;;;;;9.50;7.05;;;16.70;91.70;;;;;;5062608;28;20020;-76
2021/10/18 11:24:54;;;;;;;9.15;6.72;;;16.80;91.20;;;;;;5077612;28;20056;-76
2021/10/18 11:27:41;;;;;;;9.40;6.60;;;16.80;91.00;;;;;;5074412;28;20075;-76
2021/10/18 11:30:10;;;;;;;7.20;6.10;;;16.90;90.70;;;;;;5077101;28;20105;-76
2021/10/18 11:32:36;;;;;;;9.50;6.60;;;16.90;90.80;;;;;;5068326;28;20108;-76
2021/10/18 11:35:17;;;;;;;8.00;6.20;;;16.90;90.90;;;;;;5065258;28;20103;-78
2021/10/18 11:37:52;;;;;;;9.98;6.63;;;16.90;90.90;;;;;;5069050;28;20020;-80
2021/10/18 11:40:25;;;;;;;7.95;6.55;;;17.00;91.00;;;;;;5072422;28;20047;-77
2021/10/18 11:42:56;;;;;;;9.40;7.00;;;17.00;91.10;;;;;;5068795;28;20024;-80
2021/10/18 11:45:24;;;;;;;9.35;6.55;;;17.00;91.00;;;;;;5057404;28;20025;-81
2021/10/18 11:47:51;;;;;;;10.05;6.45;;;17.00;91.40;;;;;;5069674;28;20108;-78
2021/10/18 11:50:24;;;;;;;7.18;5.75;;;17.10;91.30;;;;;;5067618;28;20494;-79
2021/10/18 11:53:02;;;;;;;7.65;6.05;;;17.10;91.00;;;;;;5066260;28;20544;-80
2021/10/18 11:55:37;;;;;;;8.40;6.60;;;17.10;91.00;;;;;;5072201;28;20017;-80
2021/10/18 11:58:05;;;;;;;7.85;5.78;;;17.10;91.10;;;;;;5072004;28;20044;-80
2021/10/18 12:00:43;;;;;;;9.00;6.50;;;17.20;91.10;;;;;;5062209;28;20028;-80
2021/10/18 12:03:10;;;;;;;6.25;5.30;;;17.20;91.30;;;;;;5059529;28;20120;-81
2021/10/18 12:05:57;;;;;;;7.78;5.50;;;17.30;91.40;;;;;;5060260;28;20031;-78
2021/10/18 12:08:34;;;;;;;7.88;5.32;;;17.30;91.00;;;;;;5069862;28;20028;-77
2021/10/18 12:11:02;;;;;;;6.50;5.55;;;17.30;91.10;;;;;;5071311;28;20025;-77
2021/10/18 12:13:28;;;;;;;8.20;5.25;;;17.30;91.40;;;;;;5071465;28;20021;-78
2021/10/18 12:16:03;;;;;;;6.68;5.35;;;17.40;91.20;;;;;;5070813;28;20030;-77
2021/10/18 12:18:36;;;;;;;7.40;5.38;;;17.50;91.20;;;;;;5065023;28;20047;-78
2021/10/18 12:21:17;;;;;;;6.57;5.15;;;17.50;91.40;;;;;;5068109;28;20027;-80
2021/10/18 12:23:50;;;;;;;7.00;5.25;;;17.50;91.20;;;;;;5036560;28;20033;-81
2021/10/18 12:26:24;;;;;;;6.97;5.43;;;17.50;91.40;;;;;;5071888;28;20029;-80
2021/10/18 12:29:10;;;;;;;7.70;5.43;;;17.50;91.40;;;;;;5071366;28;20052;-81
2021/10/18 12:31:46;;;;;;;8.07;6.00;;;17.50;91.00;;;;;;5071130;28;20024;-79
2021/10/18 12:34:18;;;;;;;7.35;5.78;;;17.60;91.20;;;;;;5056048;28;20024;-80
2021/10/18 12:37:05;;;;;;;8.55;6.00;;;17.50;91.50;;;;;;5071286;28;20032;-80
2021/10/18 12:39:58;;;;;;;8.90;6.95;;;17.60;91.50;;;;;;5056305;28;20044;-80
2021/10/18 12:42:24;;;;;;;8.05;5.57;;;17.60;91.50;;;;;;5066595;28;20024;-80
2021/10/18 12:45:11;;;;;;;7.50;6.15;;;17.60;91.40;;;;;;5062028;28;20387;-79
2021/10/18 12:47:39;;;;;;;7.50;6.18;;;17.60;90.90;;;;;;5060409;28;20473;-80
2021/10/18 12:50:07;;;;;;;8.25;6.15;;;17.70;91.80;;;;;;5070813;28;20070;-81
2021/10/18 12:52:51;;;;;;;7.90;6.03;;;17.70;91.40;;;;;;5053529;28;20378;-80
2021/10/18 12:55:21;;;;;;;6.88;5.50;;;17.70;91.20;;;;;;5065033;28;20059;-80
2021/10/18 12:57:54;;;;;;;7.80;5.25;;;17.70;91.40;;;;;;5071088;28;20025;-80
2021/10/18 13:00:27;;;;;;;;;;;17.70;91.40;;;;;;5069181;28;20028;-81
2021/10/18 13:03:18;;;;;;;6.97;5.50;;;17.60;90.50;;;;;;5072823;28;19912;-81
2021/10/18 13:05:48;;;;;;;7.13;5.20;;;17.60;91.40;;;;;;5060560;28;20512;-80
2021/10/18 13:08:16;;;;;;;6.28;5.45;;;17.60;91.10;;;;;;5070751;28;20027;-74
2021/10/18 13:10:42;;;;;;;7.57;5.68;;;17.60;91.40;;;;;;5070892;28;20070;-75
2021/10/18 13:13:13;;;;;;;6.95;5.82;;;17.60;91.60;;;;;;5070368;28;20025;-75
2021/10/18 13:15:39;;;;;;;7.70;6.40;;;17.70;91.50;;;;;;5067569;28;20024;-75
2021/10/18 13:18:07;;;;;;;9.00;6.80;;;17.60;91.90;;;;;;5071208;28;20083;-76
2021/10/18 13:20:33;;;;;;;7.70;6.38;;;17.60;91.60;;;;;;5071101;28;20021;-75
2021/10/18 13:23:00;;;;;;;10.18;7.80;;;17.60;92.00;;;;;;5071412;28;20052;-75
2021/10/18 13:25:31;;;;;;;9.30;7.75;;;17.60;91.90;;;;;;5071154;28;20034;-76
2021/10/18 13:27:58;;;;;;;10.40;8.10;;;17.60;91.90;;;;;;5070534;28;20055;-75
2021/10/18 13:30:26;;;;;;;8.63;7.70;;;17.60;91.90;;;;;;5071468;28;20025;-75
2021/10/18 13:32:53;;;;;;;9.63;7.43;;;17.60;92.00;;;;;;5058729;28;20028;-75
2021/10/18 13:35:20;;;;;;;8.70;7.72;;;17.60;92.00;;;;;;5071536;28;20056;-75
2021/10/18 13:37:47;;;;;;;10.48;7.70;;;17.60;92.10;;;;;;5070918;28;20028;-75
2021/10/18 13:40:15;;;;;;;7.18;6.45;;;17.70;92.80;;;;;;5071297;28;20421;-75
2021/10/18 13:42:42;;;;;;;7.95;7.15;;;17.60;92.00;;;;;;5071193;28;20435;-76
2021/10/18 13:45:10;;;;;;;8.45;7.30;;;17.60;92.10;;;;;;5071012;28;20036;-75
2021/10/18 13:47:35;;;;;;;8.48;7.68;;;17.60;92.20;;;;;;5070887;28;20020;-76
2021/10/18 13:50:01;;;;;;;8.18;7.38;;;17.60;92.20;;;;;;5070428;28;20033;-78
2021/10/18 13:52:27;;;;;;;7.25;6.55;;;17.70;92.40;;;;;;5070832;28;20051;-76
2021/10/18 13:54:53;;;;;;;8.05;6.63;;;17.70;92.30;;;;;;5071176;28;20105;-76
2021/10/18 13:57:21;;;;;;;7.57;6.78;;;17.70;92.20;;;;;;5070967;28;20500;-75
2021/10/18 13:59:47;;;;;;;6.60;5.95;;;17.80;92.50;;;;;;5070854;28;20397;-75
2021/10/18 14:02:16;;;;;;;6.82;5.78;;;17.80;92.30;;;;;;5070412;28;20112;-76